Aalsmeer, Netherlands
Current Conditions -  °F | °C
As of 2:25 AM on Tuesday 25 Nov 2014 (Local Time) from EHAM Reporting Station
Few Clouds Few Clouds  
Wind Chill: 37°   Ceiling: Unl
Heat Index: 37°   Visibility: 6mi
Dew Point: 37°   Wind: 1mph
Humidity: 100%   Direction: NA
Pressure: 30.33"   Gusts: NA
Location:  52.26°N, 4.76°E
Report Text: EHAM 250125Z VRB01KT 9999 FEW035 03/03 Q1027 TEMPO 4000 MIFG
Loading
Personal Weather Stations






























Interactive Weather Map New forecast layout! Learn more

10-Day Weather Forecast

Advertisements
Track Severe Weather on mobile